createdAt,value
2023-03-04T00:02:56.373Z,8.7
2023-03-04T00:05:58.284Z,8.9
2023-03-04T00:09:00.367Z,8.5
2023-03-04T00:12:02.348Z,8.8
2023-03-04T00:15:04.200Z,8.7
2023-03-04T00:18:06.195Z,10.5
2023-03-04T00:21:08.149Z,9.9
2023-03-04T00:24:10.074Z,10
2023-03-04T00:27:12.062Z,9.3
2023-03-04T00:30:14.077Z,9.2
2023-03-04T00:33:15.949Z,9.1
2023-03-04T00:36:17.918Z,8.9
2023-03-04T00:39:19.879Z,9.6
2023-03-04T00:42:21.859Z,9.6
2023-03-04T00:45:23.807Z,9.3
2023-03-04T00:48:25.755Z,9.9
2023-03-04T00:51:27.792Z,10.6
2023-03-04T00:54:29.742Z,9.9
2023-03-04T00:57:31.701Z,11.4
2023-03-04T01:00:33.678Z,12.4
2023-03-04T01:03:35.616Z,12.4
2023-03-04T01:06:37.605Z,12.3
2023-03-04T01:09:39.548Z,12
2023-03-04T01:12:41.521Z,12.1
2023-03-04T01:15:43.480Z,11.8
2023-03-04T01:18:45.427Z,12.4
2023-03-04T01:21:47.409Z,13.3
2023-03-04T01:24:49.359Z,12.6
2023-03-04T01:27:51.305Z,13.2
2023-03-04T01:30:53.343Z,14.8
2023-03-04T01:33:55.230Z,13.3
2023-03-04T01:36:57.200Z,14.3
2023-03-04T01:39:59.428Z,14.3
2023-03-04T01:43:01.207Z,13
2023-03-04T01:46:03.163Z,13.7
2023-03-04T01:49:05.109Z,12.9
2023-03-04T01:52:07.022Z,14
2023-03-04T01:55:08.960Z,14.3
2023-03-04T01:58:10.931Z,14.9
2023-03-04T02:01:12.928Z,13.5
2023-03-04T02:04:14.896Z,14.1
2023-03-04T02:07:16.815Z,15.2
2023-03-04T02:10:18.794Z,13.9
2023-03-04T02:13:20.782Z,14.9
2023-03-04T02:16:22.760Z,14.5
2023-03-04T02:19:24.683Z,15.7
2023-03-04T02:22:26.669Z,13.7
2023-03-04T02:25:28.621Z,15
2023-03-04T02:28:30.594Z,15.4
2023-03-04T02:31:32.612Z,14.1
2023-03-04T02:34:34.507Z,13.6
2023-03-04T02:37:36.464Z,13.5
2023-03-04T02:40:38.440Z,14.4
2023-03-04T02:43:40.386Z,14.2
2023-03-04T02:46:42.392Z,14.1
2023-03-04T02:49:44.337Z,14
2023-03-04T02:52:46.268Z,13.4
2023-03-04T02:55:48.246Z,14.5
2023-03-04T02:58:50.184Z,12.9
2023-03-04T03:01:52.195Z,13.6
2023-03-04T03:04:54.111Z,14.5
2023-03-04T03:07:56.052Z,14
2023-03-04T03:10:58.036Z,13.8
2023-03-04T03:14:00.012Z,13.8
2023-03-04T03:17:01.967Z,14.3
2023-03-04T03:20:03.926Z,14.2
2023-03-04T03:23:05.896Z,15.9
2023-03-04T03:26:07.871Z,14.6
2023-03-04T03:29:09.829Z,15.4
2023-03-04T03:32:11.817Z,13.4
2023-03-04T03:35:13.744Z,14.1
2023-03-04T03:38:15.693Z,13
2023-03-04T03:41:17.663Z,13.3
2023-03-04T03:44:19.593Z,14.2
2023-03-04T03:47:21.552Z,13.4
2023-03-04T03:50:23.519Z,12.9
2023-03-04T03:53:25.476Z,12.6
2023-03-04T03:56:27.453Z,11.8
2023-03-04T03:59:29.398Z,11.6
2023-03-04T04:02:31.443Z,12.1
2023-03-04T04:05:33.306Z,11.1
2023-03-04T04:08:35.271Z,14.3
2023-03-04T04:11:37.255Z,16.8
2023-03-04T04:14:39.205Z,16.8
2023-03-04T04:17:41.156Z,15
2023-03-04T04:20:43.134Z,14.9
2023-03-04T04:23:45.087Z,15.2
2023-03-04T04:26:47.057Z,15.3
2023-03-04T04:29:49.004Z,15.6
2023-03-04T04:32:50.944Z,15.8
2023-03-04T04:35:52.982Z,16.5
2023-03-04T04:38:54.884Z,17.4
2023-03-04T04:41:56.846Z,17.4
2023-03-04T04:44:58.796Z,20.1
2023-03-04T04:48:00.771Z,17.1
2023-03-04T04:51:02.722Z,17.9
2023-03-04T04:54:04.673Z,17.6
2023-03-04T04:57:06.642Z,16.3
2023-03-04T05:00:08.607Z,17.3
2023-03-04T05:03:10.580Z,15
2023-03-04T05:06:12.540Z,15.2
2023-03-04T05:09:14.475Z,16
2023-03-04T05:12:16.531Z,17.4
2023-03-04T05:15:18.486Z,16.1
2023-03-04T05:18:20.445Z,16.5
2023-03-04T05:21:22.447Z,15.5
2023-03-04T05:24:24.373Z,16.1
2023-03-04T05:27:26.369Z,17.2
2023-03-04T05:30:28.315Z,17.4
2023-03-04T05:33:30.238Z,16.2
2023-03-04T05:36:32.207Z,15.8
2023-03-04T05:39:34.166Z,16.9
2023-03-04T05:42:36.129Z,15.8
2023-03-04T05:45:38.079Z,18.6
2023-03-04T05:48:40.051Z,16.1
2023-03-04T05:51:42.014Z,15.3
2023-03-04T05:54:43.974Z,15.9
2023-03-04T05:57:45.927Z,16.9
2023-03-04T06:00:47.892Z,15.6
2023-03-04T06:03:49.874Z,14.7
2023-03-04T06:06:51.797Z,15.6
2023-03-04T06:09:53.768Z,16
2023-03-04T06:12:55.725Z,17.5
2023-03-04T06:15:57.738Z,15.4
2023-03-04T06:18:59.643Z,14.8
2023-03-04T06:22:01.609Z,15.8
2023-03-04T06:25:03.600Z,17.5
2023-03-04T06:28:05.557Z,18.2
2023-03-04T06:31:07.543Z,19.6
2023-03-04T06:34:09.622Z,16.2
2023-03-04T06:37:11.431Z,18.6
2023-03-04T06:40:13.375Z,18.3
2023-03-04T06:43:15.357Z,18.9
2023-03-04T06:46:17.323Z,16.5
2023-03-04T06:49:19.290Z,18.3
2023-03-04T06:52:21.240Z,15.9
2023-03-04T06:55:23.210Z,17
2023-03-04T06:58:25.177Z,17.4
2023-03-04T07:01:27.139Z,17.3
2023-03-04T07:04:29.108Z,17
2023-03-04T07:07:31.289Z,16.9
2023-03-04T07:10:33.044Z,19.1
2023-03-04T07:13:35.006Z,17.4
2023-03-04T07:16:37.010Z,16.1
2023-03-04T07:19:38.927Z,18.9
2023-03-04T07:22:40.898Z,16.2
2023-03-04T07:25:42.903Z,15.6
2023-03-04T07:28:44.812Z,18.5
2023-03-04T07:31:46.869Z,17.7
2023-03-04T07:34:48.738Z,17.7
2023-03-04T07:37:50.686Z,17.4
2023-03-04T07:40:52.632Z,17
2023-03-04T07:43:54.600Z,15.3
2023-03-04T07:46:56.580Z,16.4
2023-03-04T07:49:58.529Z,17.3
2023-03-04T07:53:00.486Z,18.5
2023-03-04T07:56:02.811Z,16.6
2023-03-04T07:59:04.411Z,17.1
2023-03-04T08:02:06.452Z,16.3
2023-03-04T08:05:08.334Z,17.9
2023-03-04T08:08:10.305Z,16.5
2023-03-04T08:11:12.252Z,16.2
2023-03-04T08:14:14.219Z,15.1
2023-03-04T08:17:16.178Z,17.3
2023-03-04T08:20:18.133Z,14.5
2023-03-04T08:23:20.100Z,16.7
2023-03-04T08:26:22.109Z,17.7
2023-03-04T08:29:24.028Z,17.2
2023-03-04T08:32:26.133Z,15.2
2023-03-04T08:35:27.961Z,15.3
2023-03-04T08:38:30.009Z,18
2023-03-04T08:41:31.982Z,18
2023-03-04T08:44:33.963Z,17
2023-03-04T08:47:35.914Z,17.1
2023-03-04T08:50:37.870Z,17.4
2023-03-04T08:53:39.861Z,14
2023-03-04T08:56:41.991Z,13.7
2023-03-04T08:59:43.798Z,14.4
2023-03-04T09:02:45.754Z,15.6
2023-03-04T09:05:47.709Z,14.5
2023-03-04T09:08:49.682Z,13.8
2023-03-04T09:11:51.683Z,13.5
2023-03-04T09:15:08.605Z,13.4
2023-03-04T09:17:55.700Z,14.2
2023-03-04T09:20:57.642Z,13.7
2023-03-04T09:23:59.584Z,13
2023-03-04T09:27:01.592Z,13.2
2023-03-04T09:30:03.515Z,14
2023-03-04T09:33:05.532Z,12.3
2023-03-04T09:36:07.500Z,13.2
2023-03-04T09:39:09.466Z,14
2023-03-04T09:42:11.435Z,14.8
2023-03-04T09:45:13.508Z,13.9
2023-03-04T09:48:15.481Z,14.3
2023-03-04T09:51:17.457Z,15.2
2023-03-04T09:54:19.480Z,13.6
2023-03-04T09:57:21.443Z,15.2
2023-03-04T10:00:23.520Z,14.8
2023-03-04T10:03:25.508Z,15.3
2023-03-04T10:06:27.528Z,13.1
2023-03-04T10:09:29.541Z,13.4
2023-03-04T10:12:31.497Z,13.2
2023-03-04T10:15:33.648Z,12.1
2023-03-04T10:18:35.636Z,14.9
2023-03-04T10:21:37.654Z,13.9
2023-03-04T10:24:39.626Z,12.2
2023-03-04T10:27:47.087Z,11.9
2023-03-04T10:30:46.899Z,10.8
2023-03-04T10:33:49.026Z,12.1
2023-03-04T10:36:53.922Z,12.3
2023-03-04T10:39:56.142Z,10.4
2023-03-04T10:43:11.577Z,10.3
2023-03-04T10:46:06.912Z,10.9
2023-03-04T10:49:11.151Z,10.2
2023-03-04T10:52:11.082Z,9.6
2023-03-04T10:55:16.036Z,9.3
2023-03-04T10:58:26.556Z,8.4
2023-03-04T11:01:29.405Z,9.6
2023-03-04T11:04:34.488Z,7.1
2023-03-04T11:07:52.414Z,6.5
2023-03-04T11:10:39.026Z,5.7
2023-03-04T11:13:44.194Z,5.8
2023-03-04T11:16:46.495Z,5.1
2023-03-04T11:19:51.648Z,4.6
2023-03-04T11:22:53.833Z,4.8
2023-03-04T11:25:55.858Z,4.9
2023-03-04T11:28:57.852Z,5
2023-03-04T11:31:59.921Z,4.4
2023-03-04T11:35:01.923Z,4.7
2023-03-04T11:38:06.119Z,4.4
2023-03-04T11:41:05.989Z,4.7
2023-03-04T11:44:07.901Z,4.8
2023-03-04T11:47:09.930Z,4.8
2023-03-04T11:50:11.934Z,4.1
2023-03-04T11:53:14.185Z,4.5
2023-03-04T11:56:16.017Z,4
2023-03-04T11:59:18.087Z,3.9
2023-03-04T12:02:20.414Z,3.9
2023-03-04T12:05:22.543Z,4
2023-03-04T12:08:23.990Z,3.2
2023-03-04T12:11:25.965Z,3.7
2023-03-04T12:14:27.958Z,4.3
2023-03-04T12:17:29.938Z,3.9
2023-03-04T12:20:31.936Z,3
2023-03-04T12:23:33.906Z,3.9
2023-03-04T12:26:36.278Z,4.9
2023-03-04T12:29:38.407Z,3.9
2023-03-04T12:32:40.576Z,4.3
2023-03-04T12:35:42.584Z,5.6
2023-03-04T12:38:44.509Z,3.5
2023-03-04T12:41:46.463Z,3.5
2023-03-04T12:44:48.429Z,3.3
2023-03-04T12:47:50.404Z,2.8
2023-03-04T12:50:52.455Z,2.9
2023-03-04T12:53:54.422Z,2.5
2023-03-04T12:56:56.485Z,3.8
2023-03-04T12:59:58.458Z,3.3
2023-03-04T13:03:00.913Z,3
2023-03-04T13:06:02.379Z,3
2023-03-04T13:09:04.575Z,2.4
2023-03-04T13:12:06.455Z,2.3
2023-03-04T13:15:08.692Z,2.5
2023-03-04T13:18:10.656Z,2.3
2023-03-04T13:21:12.642Z,2.5
2023-03-04T13:24:14.581Z,2.8
2023-03-04T13:27:16.564Z,2.6
2023-03-04T13:30:18.556Z,3
2023-03-04T13:33:20.552Z,4.8
2023-03-04T13:36:22.493Z,3.8
2023-03-04T13:39:24.526Z,3.8
2023-03-04T13:42:26.557Z,3.2
2023-03-04T13:45:28.576Z,3.8
2023-03-04T13:48:30.533Z,3.2
2023-03-04T13:51:32.496Z,3.1
2023-03-04T13:54:34.499Z,3.4
2023-03-04T13:57:36.441Z,4
2023-03-04T14:00:38.431Z,3.5
2023-03-04T14:03:40.381Z,3.2
2023-03-04T14:06:42.334Z,3.8
2023-03-04T14:09:44.331Z,2.7
2023-03-04T14:12:46.291Z,3.9
2023-03-04T14:15:48.237Z,3.1
2023-03-04T14:18:50.207Z,3.5
2023-03-04T14:21:52.175Z,3.3
2023-03-04T14:24:54.261Z,3.5
2023-03-04T14:27:56.202Z,2.7
2023-03-04T14:30:58.161Z,3.8
2023-03-04T14:34:00.216Z,3.2
2023-03-04T14:37:02.143Z,3.9
2023-03-04T14:40:04.096Z,3.1
2023-03-04T14:43:06.085Z,4.8
2023-03-04T14:46:08.154Z,5.9
2023-03-04T14:49:10.014Z,10.1
2023-03-04T14:52:12.005Z,10.8
2023-03-04T14:55:13.971Z,14.8
2023-03-04T14:58:15.978Z,7.3
2023-03-04T15:01:17.922Z,5.3
2023-03-04T15:04:19.884Z,4.6
2023-03-04T15:07:21.880Z,5.4
2023-03-04T15:10:23.837Z,5
2023-03-04T15:13:25.781Z,4.8
2023-03-04T15:16:27.847Z,4.2
2023-03-04T15:19:29.737Z,4.4
2023-03-04T15:22:31.823Z,3.8
2023-03-04T15:25:33.735Z,3.6
2023-03-04T15:28:35.699Z,3.8
2023-03-04T15:31:37.644Z,4
2023-03-04T15:34:39.612Z,3.3
2023-03-04T15:37:41.583Z,3.7
2023-03-04T15:40:43.658Z,3.5
2023-03-04T15:43:45.610Z,4.2
2023-03-04T15:46:47.574Z,3.9
2023-03-04T15:49:49.521Z,3.3
2023-03-04T15:52:51.562Z,3
2023-03-04T15:55:53.543Z,3.4
2023-03-04T15:58:55.511Z,4.4
2023-03-04T16:01:57.505Z,3.6
2023-03-04T16:04:59.617Z,3.3
2023-03-04T16:08:01.465Z,3
2023-03-04T16:11:03.389Z,3.6
2023-03-04T16:14:05.349Z,3
2023-03-04T16:17:07.299Z,2.8
2023-03-04T16:20:09.291Z,2.7
2023-03-04T16:23:11.450Z,3.1
2023-03-04T16:26:13.218Z,2.9
2023-03-04T16:29:15.196Z,3.5
2023-03-04T16:32:17.177Z,4.1
2023-03-04T16:35:19.207Z,4.5
2023-03-04T16:38:21.086Z,4
2023-03-04T16:41:23.093Z,4.7
2023-03-04T16:44:25.001Z,4
2023-03-04T16:47:27.022Z,4.1
2023-03-04T16:50:28.957Z,4.8
2023-03-04T16:53:30.937Z,5.7
2023-03-04T16:56:33.095Z,5.3
2023-03-04T16:59:34.844Z,6.5
2023-03-04T17:02:36.868Z,6.3
2023-03-04T17:05:38.808Z,6
2023-03-04T17:08:40.743Z,6.4
2023-03-04T17:11:42.760Z,6.5
2023-03-04T17:14:44.715Z,7.1
2023-03-04T17:17:46.689Z,6.7
2023-03-04T17:20:48.671Z,8.2
2023-03-04T17:23:50.613Z,9.6
2023-03-04T17:26:52.624Z,9.1
2023-03-04T17:29:54.558Z,12.5
2023-03-04T17:32:56.555Z,10.2
2023-03-04T17:35:58.545Z,9.6
2023-03-04T17:39:00.482Z,10.4
2023-03-04T17:42:05.331Z,9.6
2023-03-04T17:45:07.347Z,9.9
2023-03-04T17:48:09.309Z,10.1
2023-03-04T17:51:11.251Z,9.8
2023-03-04T17:54:13.344Z,8.7
2023-03-04T17:57:15.343Z,8.2
2023-03-04T18:00:17.259Z,9.3
2023-03-04T18:03:19.232Z,10.9
2023-03-04T18:06:21.178Z,10.7
2023-03-04T18:09:23.138Z,10.5
2023-03-04T18:12:25.200Z,10.7
2023-03-04T18:15:27.096Z,9.7
2023-03-04T18:18:29.032Z,11
2023-03-04T18:21:31.017Z,15.6
2023-03-04T18:24:33.098Z,9.8
2023-03-04T18:27:34.934Z,11
2023-03-04T18:30:36.914Z,11.9
2023-03-04T18:33:38.892Z,9.2
2023-03-04T18:36:40.837Z,11.5
2023-03-04T18:39:42.810Z,10.4
2023-03-04T18:42:44.758Z,9.9
2023-03-04T18:45:46.735Z,11.2
2023-03-04T18:48:48.706Z,9.4
2023-03-04T18:51:50.682Z,8.8
2023-03-04T18:54:52.670Z,8.8
2023-03-04T18:57:54.616Z,8.6
2023-03-04T19:00:56.603Z,9.4
2023-03-04T19:03:58.582Z,9.3
2023-03-04T19:07:00.517Z,14.4
2023-03-04T19:10:02.473Z,9.8
2023-03-04T19:13:04.479Z,9.6
2023-03-04T19:16:06.437Z,10.2
2023-03-04T19:19:08.386Z,9.6
2023-03-04T19:22:10.396Z,7.9
2023-03-04T19:25:12.331Z,9
2023-03-04T19:28:14.288Z,7.9
2023-03-04T19:31:16.240Z,7.5
2023-03-04T19:34:18.209Z,7.8
2023-03-04T19:37:20.177Z,8.3
2023-03-04T19:40:22.138Z,8.9
2023-03-04T19:43:24.104Z,9.3
2023-03-04T19:46:26.086Z,9.8
2023-03-04T19:49:28.057Z,9.2
2023-03-04T19:52:29.996Z,8.9
2023-03-04T19:55:31.981Z,8.6
2023-03-04T19:58:33.933Z,7.3
2023-03-04T20:01:35.925Z,8.6
2023-03-04T20:04:37.887Z,9.7
2023-03-04T20:07:39.820Z,11.1
2023-03-04T20:10:41.819Z,10.3
2023-03-04T20:13:43.765Z,12.4
2023-03-04T20:16:45.743Z,10.1
2023-03-04T20:19:47.697Z,9.3
2023-03-04T20:22:49.668Z,9.5
2023-03-04T20:25:51.680Z,9.6
2023-03-04T20:28:53.598Z,9.3
2023-03-04T20:31:55.565Z,9.4
2023-03-04T20:34:57.528Z,9.8
2023-03-04T20:37:59.489Z,8.6
2023-03-04T20:41:01.474Z,9.4
2023-03-04T20:44:03.420Z,8.2
2023-03-04T20:47:05.387Z,8.6
2023-03-04T20:50:07.341Z,7.3
2023-03-04T20:53:09.321Z,8.5
2023-03-04T20:56:11.268Z,9.8
2023-03-04T20:59:13.226Z,9.7
2023-03-04T21:02:15.181Z,9.5
2023-03-04T21:05:17.170Z,8.3
2023-03-04T21:08:19.165Z,8.3
2023-03-04T21:11:21.088Z,9.6
2023-03-04T21:14:23.087Z,8.6
2023-03-04T21:17:25.022Z,8.2
2023-03-04T21:20:26.971Z,7.7
2023-03-04T21:23:28.975Z,9.9
2023-03-04T21:26:30.927Z,8.5
2023-03-04T21:29:32.899Z,8
2023-03-04T21:32:34.860Z,7.3
2023-03-04T21:35:36.878Z,9.1
2023-03-04T21:38:39.548Z,8.1
2023-03-04T21:41:40.735Z,8.5
2023-03-04T21:44:48.915Z,7.4
2023-03-04T21:47:44.640Z,7.6
2023-03-04T21:50:46.637Z,7.9
2023-03-04T21:53:48.606Z,9.5
2023-03-04T21:56:50.556Z,7.6
2023-03-04T21:59:52.509Z,7.7
2023-03-04T22:02:54.516Z,7
2023-03-04T22:05:56.447Z,8.9
2023-03-04T22:08:58.408Z,9.4
2023-03-04T22:12:00.372Z,8.2
2023-03-04T22:15:02.374Z,10.4
2023-03-04T22:18:04.408Z,7.5
2023-03-04T22:21:06.252Z,9
2023-03-04T22:24:08.256Z,9.8
2023-03-04T22:27:10.228Z,8.4
2023-03-04T22:30:12.157Z,8.1
2023-03-04T22:33:14.117Z,9.1
2023-03-04T22:36:16.087Z,7.6
2023-03-04T22:39:18.046Z,7.5
2023-03-04T22:42:19.994Z,10.1
2023-03-04T22:45:22.018Z,8.6
2023-03-04T22:48:23.936Z,9.9
2023-03-04T22:51:25.883Z,8.8
2023-03-04T22:54:27.851Z,9.4
2023-03-04T22:57:29.832Z,8.8
2023-03-04T23:00:31.776Z,10.5
2023-03-04T23:03:33.748Z,8.8
2023-03-04T23:06:35.698Z,10
2023-03-04T23:09:37.681Z,7.4
2023-03-04T23:12:39.642Z,9.5
2023-03-04T23:15:41.588Z,8.3
2023-03-04T23:18:43.583Z,9.3
2023-03-04T23:21:45.527Z,8.1
2023-03-04T23:24:47.499Z,8.6
2023-03-04T23:27:49.469Z,7.8
2023-03-04T23:30:51.502Z,8.8
2023-03-04T23:33:53.416Z,7.5
2023-03-04T23:36:55.351Z,8.5
2023-03-04T23:39:57.330Z,8.8
2023-03-04T23:42:59.323Z,7.6
2023-03-04T23:46:01.324Z,7.6
2023-03-04T23:49:03.236Z,7.4
2023-03-04T23:52:05.398Z,6.9
2023-03-04T23:58:09.121Z,6.9
